sensor_id;sensor_type;location;lat;lon;timestamp;P1;durP1;ratioP1;P2;durP2;ratioP2
7179;SDS011;3631;42.152;24.756;2023-02-28T00:01:21;16.33;;;9.07;;
7179;SDS011;3631;42.152;24.756;2023-02-28T00:03:50;15.57;;;9.33;;
7179;SDS011;3631;42.152;24.756;2023-02-28T00:06:17;9.83;;;8.53;;
7179;SDS011;3631;42.152;24.756;2023-02-28T00:08:45;12.30;;;8.53;;
7179;SDS011;3631;42.152;24.756;2023-02-28T00:11:14;15.30;;;8.33;;
7179;SDS011;3631;42.152;24.756;2023-02-28T00:13:43;19.30;;;8.93;;
7179;SDS011;3631;42.152;24.756;2023-02-28T00:16:14;14.47;;;9.27;;
7179;SDS011;3631;42.152;24.756;2023-02-28T00:18:43;15.83;;;8.57;;
7179;SDS011;3631;42.152;24.756;2023-02-28T00:21:11;14.57;;;9.10;;
7179;SDS011;3631;42.152;24.756;2023-02-28T00:23:38;20.17;;;8.97;;
7179;SDS011;3631;42.152;24.756;2023-02-28T00:26:05;10.90;;;8.07;;
7179;SDS011;3631;42.152;24.756;2023-02-28T00:28:32;10.47;;;8.20;;
7179;SDS011;3631;42.152;24.756;2023-02-28T00:30:59;11.40;;;8.07;;
7179;SDS011;3631;42.152;24.756;2023-02-28T00:33:26;14.80;;;8.67;;
7179;SDS011;3631;42.152;24.756;2023-02-28T00:36:00;14.17;;;9.37;;
7179;SDS011;3631;42.152;24.756;2023-02-28T00:38:32;15.27;;;9.77;;
7179;SDS011;3631;42.152;24.756;2023-02-28T00:40:59;14.97;;;9.23;;
7179;SDS011;3631;42.152;24.756;2023-02-28T00:43:30;11.33;;;8.27;;
7179;SDS011;3631;42.152;24.756;2023-02-28T00:45:58;15.07;;;9.10;;
7179;SDS011;3631;42.152;24.756;2023-02-28T00:48:25;13.10;;;8.07;;
7179;SDS011;3631;42.152;24.756;2023-02-28T00:50:51;14.20;;;8.23;;
7179;SDS011;3631;42.152;24.756;2023-02-28T00:53:18;12.87;;;8.27;;
7179;SDS011;3631;42.152;24.756;2023-02-28T00:55:47;17.23;;;8.30;;
7179;SDS011;3631;42.152;24.756;2023-02-28T00:58:14;13.20;;;8.63;;
7179;SDS011;3631;42.152;24.756;2023-02-28T01:00:41;11.53;;;8.50;;
7179;SDS011;3631;42.152;24.756;2023-02-28T01:03:08;14.27;;;8.67;;
7179;SDS011;3631;42.152;24.756;2023-02-28T01:05:35;16.53;;;8.60;;
7179;SDS011;3631;42.152;24.756;2023-02-28T01:08:01;12.67;;;8.63;;
7179;SDS011;3631;42.152;24.756;2023-02-28T01:10:28;12.33;;;7.80;;
7179;SDS011;3631;42.152;24.756;2023-02-28T01:12:58;15.80;;;9.03;;
7179;SDS011;3631;42.152;24.756;2023-02-28T01:15:25;11.47;;;8.40;;
7179;SDS011;3631;42.152;24.756;2023-02-28T01:17:51;17.73;;;8.60;;
7179;SDS011;3631;42.152;24.756;2023-02-28T01:20:18;16.33;;;9.27;;
7179;SDS011;3631;42.152;24.756;2023-02-28T01:22:46;17.20;;;9.23;;
7179;SDS011;3631;42.152;24.756;2023-02-28T01:25:12;15.50;;;8.80;;
7179;SDS011;3631;42.152;24.756;2023-02-28T01:27:39;12.53;;;7.87;;
7179;SDS011;3631;42.152;24.756;2023-02-28T01:30:08;15.83;;;8.63;;
7179;SDS011;3631;42.152;24.756;2023-02-28T01:32:36;10.10;;;8.13;;
7179;SDS011;3631;42.152;24.756;2023-02-28T01:35:03;15.47;;;7.77;;
7179;SDS011;3631;42.152;24.756;2023-02-28T01:37:30;11.40;;;8.30;;
7179;SDS011;3631;42.152;24.756;2023-02-28T01:39:57;15.17;;;7.77;;
7179;SDS011;3631;42.152;24.756;2023-02-28T01:42:24;11.07;;;7.97;;
7179;SDS011;3631;42.152;24.756;2023-02-28T01:44:55;18.43;;;7.10;;
7179;SDS011;3631;42.152;24.756;2023-02-28T01:47:27;11.53;;;7.00;;
7179;SDS011;3631;42.152;24.756;2023-02-28T01:49:58;18.23;;;7.63;;
7179;SDS011;3631;42.152;24.756;2023-02-28T01:52:27;9.60;;;6.87;;
7179;SDS011;3631;42.152;24.756;2023-02-28T01:54:55;14.03;;;8.87;;
7179;SDS011;3631;42.152;24.756;2023-02-28T01:57:27;11.97;;;7.40;;
7179;SDS011;3631;42.152;24.756;2023-02-28T02:00:03;12.27;;;8.10;;
7179;SDS011;3631;42.152;24.756;2023-02-28T02:02:36;16.70;;;7.53;;
7179;SDS011;3631;42.152;24.756;2023-02-28T02:05:05;12.40;;;7.67;;
7179;SDS011;3631;42.152;24.756;2023-02-28T02:07:34;11.20;;;7.07;;
7179;SDS011;3631;42.152;24.756;2023-02-28T02:10:04;14.87;;;7.73;;
7179;SDS011;3631;42.152;24.756;2023-02-28T02:12:43;11.57;;;8.10;;
7179;SDS011;3631;42.152;24.756;2023-02-28T02:15:29;16.77;;;7.70;;
7179;SDS011;3631;42.152;24.756;2023-02-28T02:18:03;14.97;;;7.90;;
7179;SDS011;3631;42.152;24.756;2023-02-28T02:20:52;16.10;;;8.63;;
7179;SDS011;3631;42.152;24.756;2023-02-28T02:24:11;12.93;;;8.40;;
7179;SDS011;3631;42.152;24.756;2023-02-28T02:27:02;16.73;;;9.40;;
7179;SDS011;3631;42.152;24.756;2023-02-28T02:29:55;17.27;;;9.47;;
7179;SDS011;3631;42.152;24.756;2023-02-28T02:33:00;22.80;;;9.93;;
7179;SDS011;3631;42.152;24.756;2023-02-28T02:35:38;24.63;;;10.03;;
7179;SDS011;3631;42.152;24.756;2023-02-28T02:38:13;15.23;;;9.73;;
7179;SDS011;3631;42.152;24.756;2023-02-28T02:40:48;19.17;;;10.43;;
7179;SDS011;3631;42.152;24.756;2023-02-28T02:43:19;16.77;;;10.30;;
7179;SDS011;3631;42.152;24.756;2023-02-28T02:45:52;21.00;;;9.63;;
7179;SDS011;3631;42.152;24.756;2023-02-28T02:48:24;19.03;;;10.43;;
7179;SDS011;3631;42.152;24.756;2023-02-28T02:50:56;21.83;;;10.17;;
7179;SDS011;3631;42.152;24.756;2023-02-28T02:53:27;24.33;;;10.57;;
7179;SDS011;3631;42.152;24.756;2023-02-28T02:55:59;18.23;;;11.07;;
7179;SDS011;3631;42.152;24.756;2023-02-28T02:58:29;17.73;;;10.37;;
7179;SDS011;3631;42.152;24.756;2023-02-28T03:01:01;17.63;;;10.27;;
7179;SDS011;3631;42.152;24.756;2023-02-28T03:03:30;21.83;;;10.63;;
7179;SDS011;3631;42.152;24.756;2023-02-28T03:06:01;19.00;;;10.83;;
7179;SDS011;3631;42.152;24.756;2023-02-28T03:08:29;18.60;;;11.13;;
7179;SDS011;3631;42.152;24.756;2023-02-28T03:11:01;16.97;;;9.60;;
7179;SDS011;3631;42.152;24.756;2023-02-28T03:13:48;20.87;;;11.20;;
7179;SDS011;3631;42.152;24.756;2023-02-28T03:16:34;21.93;;;10.97;;
7179;SDS011;3631;42.152;24.756;2023-02-28T03:19:09;21.90;;;12.00;;
7179;SDS011;3631;42.152;24.756;2023-02-28T03:21:54;16.90;;;11.60;;
7179;SDS011;3631;42.152;24.756;2023-02-28T03:24:32;20.87;;;11.83;;
7179;SDS011;3631;42.152;24.756;2023-02-28T03:27:07;25.97;;;12.50;;
7179;SDS011;3631;42.152;24.756;2023-02-28T03:29:37;20.67;;;11.80;;
7179;SDS011;3631;42.152;24.756;2023-02-28T03:32:11;24.23;;;11.87;;
7179;SDS011;3631;42.152;24.756;2023-02-28T03:34:54;22.17;;;12.27;;
7179;SDS011;3631;42.152;24.756;2023-02-28T03:37:26;19.50;;;11.83;;
7179;SDS011;3631;42.152;24.756;2023-02-28T03:39:57;22.63;;;11.67;;
7179;SDS011;3631;42.152;24.756;2023-02-28T03:42:27;20.93;;;11.70;;
7179;SDS011;3631;42.152;24.756;2023-02-28T03:44:58;23.03;;;12.47;;
7179;SDS011;3631;42.152;24.756;2023-02-28T03:47:28;23.07;;;12.90;;
7179;SDS011;3631;42.152;24.756;2023-02-28T03:49:59;29.40;;;13.10;;
7179;SDS011;3631;42.152;24.756;2023-02-28T03:52:33;17.97;;;11.53;;
7179;SDS011;3631;42.152;24.756;2023-02-28T03:55:05;22.30;;;12.40;;
7179;SDS011;3631;42.152;24.756;2023-02-28T03:57:37;20.90;;;12.63;;
7179;SDS011;3631;42.152;24.756;2023-02-28T04:00:10;25.97;;;13.23;;
7179;SDS011;3631;42.152;24.756;2023-02-28T04:02:41;20.90;;;12.00;;
7179;SDS011;3631;42.152;24.756;2023-02-28T04:05:08;23.83;;;13.83;;
7179;SDS011;3631;42.152;24.756;2023-02-28T04:07:36;27.97;;;13.63;;
7179;SDS011;3631;42.152;24.756;2023-02-28T04:10:04;27.13;;;14.90;;
7179;SDS011;3631;42.152;24.756;2023-02-28T04:12:32;22.03;;;14.50;;
7179;SDS011;3631;42.152;24.756;2023-02-28T04:14:58;19.70;;;12.47;;
7179;SDS011;3631;42.152;24.756;2023-02-28T04:17:25;18.20;;;12.90;;
7179;SDS011;3631;42.152;24.756;2023-02-28T04:19:52;20.30;;;13.10;;
7179;SDS011;3631;42.152;24.756;2023-02-28T04:22:22;20.50;;;12.43;;
7179;SDS011;3631;42.152;24.756;2023-02-28T04:24:52;17.77;;;11.50;;
7179;SDS011;3631;42.152;24.756;2023-02-28T04:27:19;16.93;;;11.80;;
7179;SDS011;3631;42.152;24.756;2023-02-28T04:29:46;16.27;;;11.13;;
7179;SDS011;3631;42.152;24.756;2023-02-28T04:32:13;17.47;;;11.77;;
7179;SDS011;3631;42.152;24.756;2023-02-28T04:34:40;25.80;;;13.40;;
7179;SDS011;3631;42.152;24.756;2023-02-28T04:37:07;24.10;;;12.93;;
7179;SDS011;3631;42.152;24.756;2023-02-28T04:39:34;18.10;;;11.77;;
7179;SDS011;3631;42.152;24.756;2023-02-28T04:42:04;20.47;;;11.93;;
7179;SDS011;3631;42.152;24.756;2023-02-28T04:44:31;15.47;;;11.93;;
7179;SDS011;3631;42.152;24.756;2023-02-28T04:46:58;21.00;;;11.83;;
7179;SDS011;3631;42.152;24.756;2023-02-28T04:49:28;26.17;;;13.40;;
7179;SDS011;3631;42.152;24.756;2023-02-28T04:51:55;19.97;;;12.13;;
7179;SDS011;3631;42.152;24.756;2023-02-28T04:54:22;23.47;;;12.77;;
7179;SDS011;3631;42.152;24.756;2023-02-28T04:56:49;22.23;;;12.70;;
7179;SDS011;3631;42.152;24.756;2023-02-28T04:59:17;19.50;;;11.73;;
7179;SDS011;3631;42.152;24.756;2023-02-28T05:01:45;19.90;;;12.50;;
7179;SDS011;3631;42.152;24.756;2023-02-28T05:04:13;16.73;;;11.07;;
7179;SDS011;3631;42.152;24.756;2023-02-28T05:06:40;20.13;;;12.13;;
7179;SDS011;3631;42.152;24.756;2023-02-28T05:09:07;19.20;;;12.27;;
7179;SDS011;3631;42.152;24.756;2023-02-28T05:11:36;17.77;;;11.53;;
7179;SDS011;3631;42.152;24.756;2023-02-28T05:14:05;20.20;;;11.80;;
7179;SDS011;3631;42.152;24.756;2023-02-28T05:16:34;27.57;;;12.80;;
7179;SDS011;3631;42.152;24.756;2023-02-28T05:19:01;31.43;;;13.43;;
7179;SDS011;3631;42.152;24.756;2023-02-28T05:21:29;21.07;;;11.10;;
7179;SDS011;3631;42.152;24.756;2023-02-28T05:23:59;21.30;;;11.47;;
7179;SDS011;3631;42.152;24.756;2023-02-28T05:26:27;18.73;;;12.17;;
7179;SDS011;3631;42.152;24.756;2023-02-28T05:28:54;16.30;;;11.17;;
7179;SDS011;3631;42.152;24.756;2023-02-28T05:31:22;26.63;;;11.67;;
7179;SDS011;3631;42.152;24.756;2023-02-28T05:33:50;16.67;;;10.53;;
7179;SDS011;3631;42.152;24.756;2023-02-28T05:36:17;16.70;;;11.33;;
7179;SDS011;3631;42.152;24.756;2023-02-28T05:38:46;22.43;;;11.60;;
7179;SDS011;3631;42.152;24.756;2023-02-28T05:41:14;20.23;;;11.83;;
7179;SDS011;3631;42.152;24.756;2023-02-28T05:43:41;19.30;;;12.70;;
7179;SDS011;3631;42.152;24.756;2023-02-28T05:46:09;19.53;;;11.87;;
7179;SDS011;3631;42.152;24.756;2023-02-28T05:48:38;20.33;;;12.97;;
7179;SDS011;3631;42.152;24.756;2023-02-28T05:51:07;18.57;;;11.53;;
7179;SDS011;3631;42.152;24.756;2023-02-28T05:53:35;16.40;;;11.07;;
7179;SDS011;3631;42.152;24.756;2023-02-28T05:56:02;20.17;;;11.23;;
7179;SDS011;3631;42.152;24.756;2023-02-28T05:58:29;18.53;;;11.23;;
7179;SDS011;3631;42.152;24.756;2023-02-28T06:00:57;19.97;;;11.90;;
7179;SDS011;3631;42.152;24.756;2023-02-28T06:03:24;19.80;;;11.87;;
7179;SDS011;3631;42.152;24.756;2023-02-28T06:05:51;16.30;;;10.40;;
7179;SDS011;3631;42.152;24.756;2023-02-28T06:08:19;18.80;;;11.20;;
7179;SDS011;3631;42.152;24.756;2023-02-28T06:10:46;18.27;;;10.57;;
7179;SDS011;3631;42.152;24.756;2023-02-28T06:13:14;19.87;;;11.40;;
7179;SDS011;3631;42.152;24.756;2023-02-28T06:15:41;17.43;;;11.10;;
7179;SDS011;3631;42.152;24.756;2023-02-28T06:18:08;20.33;;;11.97;;
7179;SDS011;3631;42.152;24.756;2023-02-28T06:20:34;20.83;;;10.10;;
7179;SDS011;3631;42.152;24.756;2023-02-28T06:23:01;25.73;;;13.87;;
7179;SDS011;3631;42.152;24.756;2023-02-28T06:25:30;16.27;;;11.40;;
7179;SDS011;3631;42.152;24.756;2023-02-28T06:27:57;19.00;;;11.80;;
7179;SDS011;3631;42.152;24.756;2023-02-28T06:30:24;21.97;;;12.47;;
7179;SDS011;3631;42.152;24.756;2023-02-28T06:32:55;21.23;;;13.03;;
7179;SDS011;3631;42.152;24.756;2023-02-28T06:35:22;19.07;;;12.00;;
7179;SDS011;3631;42.152;24.756;2023-02-28T06:37:48;20.17;;;12.27;;
7179;SDS011;3631;42.152;24.756;2023-02-28T06:40:15;20.47;;;11.87;;
7179;SDS011;3631;42.152;24.756;2023-02-28T06:42:44;17.70;;;10.93;;
7179;SDS011;3631;42.152;24.756;2023-02-28T06:45:11;19.93;;;11.07;;
7179;SDS011;3631;42.152;24.756;2023-02-28T06:47:39;21.27;;;12.50;;
7179;SDS011;3631;42.152;24.756;2023-02-28T06:50:07;20.53;;;12.70;;
7179;SDS011;3631;42.152;24.756;2023-02-28T06:52:35;21.20;;;13.47;;
7179;SDS011;3631;42.152;24.756;2023-02-28T06:55:02;23.97;;;12.23;;
7179;SDS011;3631;42.152;24.756;2023-02-28T06:57:30;26.43;;;12.43;;
7179;SDS011;3631;42.152;24.756;2023-02-28T07:00:00;20.70;;;11.70;;
7179;SDS011;3631;42.152;24.756;2023-02-28T07:02:32;14.23;;;9.50;;
7179;SDS011;3631;42.152;24.756;2023-02-28T07:04:59;20.93;;;12.70;;
7179;SDS011;3631;42.152;24.756;2023-02-28T07:07:26;19.10;;;11.17;;
7179;SDS011;3631;42.152;24.756;2023-02-28T07:09:53;21.43;;;13.07;;
7179;SDS011;3631;42.152;24.756;2023-02-28T07:12:20;23.23;;;13.37;;
7179;SDS011;3631;42.152;24.756;2023-02-28T07:14:47;22.97;;;13.70;;
7179;SDS011;3631;42.152;24.756;2023-02-28T07:17:15;23.63;;;12.87;;
7179;SDS011;3631;42.152;24.756;2023-02-28T07:19:42;20.60;;;12.90;;
7179;SDS011;3631;42.152;24.756;2023-02-28T07:22:09;19.53;;;12.07;;
7179;SDS011;3631;42.152;24.756;2023-02-28T07:24:36;23.50;;;13.93;;
7179;SDS011;3631;42.152;24.756;2023-02-28T07:27:03;20.83;;;14.00;;
7179;SDS011;3631;42.152;24.756;2023-02-28T07:29:30;27.17;;;14.70;;
7179;SDS011;3631;42.152;24.756;2023-02-28T07:31:57;27.30;;;15.20;;
7179;SDS011;3631;42.152;24.756;2023-02-28T07:34:25;29.67;;;15.63;;
7179;SDS011;3631;42.152;24.756;2023-02-28T07:36:53;28.63;;;16.63;;
7179;SDS011;3631;42.152;24.756;2023-02-28T07:39:20;29.57;;;16.43;;
7179;SDS011;3631;42.152;24.756;2023-02-28T07:41:48;35.00;;;19.30;;
7179;SDS011;3631;42.152;24.756;2023-02-28T07:44:15;28.03;;;16.47;;
7179;SDS011;3631;42.152;24.756;2023-02-28T07:46:42;30.37;;;18.20;;
7179;SDS011;3631;42.152;24.756;2023-02-28T07:49:09;38.23;;;18.17;;
7179;SDS011;3631;42.152;24.756;2023-02-28T07:51:37;37.30;;;18.13;;
7179;SDS011;3631;42.152;24.756;2023-02-28T07:54:04;30.93;;;15.57;;
7179;SDS011;3631;42.152;24.756;2023-02-28T07:56:31;33.23;;;16.50;;
7179;SDS011;3631;42.152;24.756;2023-02-28T07:58:58;33.20;;;17.37;;
7179;SDS011;3631;42.152;24.756;2023-02-28T08:01:26;25.97;;;15.53;;
7179;SDS011;3631;42.152;24.756;2023-02-28T08:03:53;27.03;;;16.03;;
7179;SDS011;3631;42.152;24.756;2023-02-28T08:06:22;27.63;;;14.97;;
7179;SDS011;3631;42.152;24.756;2023-02-28T08:08:52;23.37;;;14.67;;
7179;SDS011;3631;42.152;24.756;2023-02-28T08:11:21;23.23;;;15.83;;
7179;SDS011;3631;42.152;24.756;2023-02-28T08:13:48;29.47;;;17.47;;
7179;SDS011;3631;42.152;24.756;2023-02-28T08:16:15;37.70;;;18.23;;
7179;SDS011;3631;42.152;24.756;2023-02-28T08:18:46;32.87;;;18.50;;
7179;SDS011;3631;42.152;24.756;2023-02-28T08:21:14;33.47;;;18.07;;
7179;SDS011;3631;42.152;24.756;2023-02-28T08:23:41;40.13;;;20.40;;
7179;SDS011;3631;42.152;24.756;2023-02-28T08:26:09;31.83;;;17.87;;
7179;SDS011;3631;42.152;24.756;2023-02-28T08:28:36;40.30;;;18.77;;
7179;SDS011;3631;42.152;24.756;2023-02-28T08:31:06;33.07;;;18.80;;
7179;SDS011;3631;42.152;24.756;2023-02-28T08:33:34;37.27;;;16.73;;
7179;SDS011;3631;42.152;24.756;2023-02-28T08:36:01;29.50;;;17.77;;
7179;SDS011;3631;42.152;24.756;2023-02-28T08:38:28;42.47;;;20.33;;
7179;SDS011;3631;42.152;24.756;2023-02-28T08:40:56;39.73;;;19.67;;
7179;SDS011;3631;42.152;24.756;2023-02-28T08:43:26;40.13;;;19.07;;
7179;SDS011;3631;42.152;24.756;2023-02-28T08:45:53;36.23;;;18.57;;
7179;SDS011;3631;42.152;24.756;2023-02-28T08:48:21;37.17;;;19.87;;
7179;SDS011;3631;42.152;24.756;2023-02-28T08:50:54;38.10;;;19.30;;
7179;SDS011;3631;42.152;24.756;2023-02-28T08:53:22;32.97;;;18.00;;
7179;SDS011;3631;42.152;24.756;2023-02-28T08:55:55;30.73;;;18.03;;
7179;SDS011;3631;42.152;24.756;2023-02-28T08:58:22;42.93;;;19.07;;
7179;SDS011;3631;42.152;24.756;2023-02-28T09:00:51;33.40;;;18.67;;
7179;SDS011;3631;42.152;24.756;2023-02-28T09:03:18;31.77;;;17.73;;
7179;SDS011;3631;42.152;24.756;2023-02-28T09:05:51;30.07;;;17.47;;
7179;SDS011;3631;42.152;24.756;2023-02-28T09:08:19;32.10;;;18.77;;
7179;SDS011;3631;42.152;24.756;2023-02-28T09:10:46;43.53;;;20.27;;
7179;SDS011;3631;42.152;24.756;2023-02-28T09:13:13;28.43;;;17.63;;
7179;SDS011;3631;42.152;24.756;2023-02-28T09:15:40;33.20;;;18.83;;
7179;SDS011;3631;42.152;24.756;2023-02-28T09:18:08;36.17;;;19.43;;
7179;SDS011;3631;42.152;24.756;2023-02-28T09:20:37;29.83;;;18.87;;
7179;SDS011;3631;42.152;24.756;2023-02-28T09:23:04;27.00;;;18.37;;
7179;SDS011;3631;42.152;24.756;2023-02-28T09:25:31;30.77;;;18.60;;
7179;SDS011;3631;42.152;24.756;2023-02-28T09:27:58;39.60;;;20.53;;
7179;SDS011;3631;42.152;24.756;2023-02-28T09:30:25;33.10;;;19.97;;
7179;SDS011;3631;42.152;24.756;2023-02-28T09:32:52;30.23;;;20.27;;
7179;SDS011;3631;42.152;24.756;2023-02-28T09:35:21;27.77;;;17.20;;
7179;SDS011;3631;42.152;24.756;2023-02-28T09:37:49;30.20;;;17.97;;
7179;SDS011;3631;42.152;24.756;2023-02-28T09:40:17;30.30;;;19.00;;
7179;SDS011;3631;42.152;24.756;2023-02-28T09:42:45;28.03;;;17.27;;
7179;SDS011;3631;42.152;24.756;2023-02-28T09:45:16;27.90;;;16.97;;
7179;SDS011;3631;42.152;24.756;2023-02-28T09:47:49;30.17;;;18.17;;
7179;SDS011;3631;42.152;24.756;2023-02-28T09:50:20;28.60;;;18.03;;
7179;SDS011;3631;42.152;24.756;2023-02-28T09:52:58;30.33;;;18.53;;
7179;SDS011;3631;42.152;24.756;2023-02-28T09:55:28;30.87;;;18.47;;
7179;SDS011;3631;42.152;24.756;2023-02-28T09:57:59;29.90;;;19.27;;
7179;SDS011;3631;42.152;24.756;2023-02-28T10:00:28;33.07;;;19.40;;
7179;SDS011;3631;42.152;24.756;2023-02-28T10:03:02;39.87;;;20.77;;
7179;SDS011;3631;42.152;24.756;2023-02-28T10:05:37;37.80;;;21.80;;
7179;SDS011;3631;42.152;24.756;2023-02-28T10:08:11;41.10;;;23.43;;
7179;SDS011;3631;42.152;24.756;2023-02-28T10:10:41;36.80;;;22.13;;
7179;SDS011;3631;42.152;24.756;2023-02-28T10:13:16;52.47;;;25.60;;
7179;SDS011;3631;42.152;24.756;2023-02-28T10:15:51;65.83;;;28.07;;
7179;SDS011;3631;42.152;24.756;2023-02-28T10:18:22;70.70;;;33.83;;
7179;SDS011;3631;42.152;24.756;2023-02-28T10:20:54;48.30;;;25.63;;
7179;SDS011;3631;42.152;24.756;2023-02-28T10:23:24;45.77;;;21.60;;
7179;SDS011;3631;42.152;24.756;2023-02-28T10:25:55;38.47;;;19.97;;
7179;SDS011;3631;42.152;24.756;2023-02-28T10:28:26;43.40;;;25.13;;
7179;SDS011;3631;42.152;24.756;2023-02-28T10:30:55;52.00;;;28.20;;
7179;SDS011;3631;42.152;24.756;2023-02-28T10:33:25;59.67;;;33.40;;
7179;SDS011;3631;42.152;24.756;2023-02-28T10:35:58;49.60;;;26.93;;
7179;SDS011;3631;42.152;24.756;2023-02-28T10:38:26;42.27;;;20.83;;
7179;SDS011;3631;42.152;24.756;2023-02-28T10:41:03;44.60;;;25.33;;
7179;SDS011;3631;42.152;24.756;2023-02-28T10:43:31;44.57;;;23.60;;
7179;SDS011;3631;42.152;24.756;2023-02-28T10:45:59;47.80;;;24.50;;
7179;SDS011;3631;42.152;24.756;2023-02-28T10:48:30;47.93;;;24.50;;
7179;SDS011;3631;42.152;24.756;2023-02-28T10:51:02;40.77;;;23.67;;
7179;SDS011;3631;42.152;24.756;2023-02-28T10:53:31;60.37;;;23.37;;
7179;SDS011;3631;42.152;24.756;2023-02-28T10:56:01;48.00;;;24.10;;
7179;SDS011;3631;42.152;24.756;2023-02-28T10:58:30;46.77;;;23.87;;
7179;SDS011;3631;42.152;24.756;2023-02-28T11:01:12;41.33;;;23.67;;
7179;SDS011;3631;42.152;24.756;2023-02-28T11:03:41;37.83;;;22.00;;
7179;SDS011;3631;42.152;24.756;2023-02-28T11:06:12;37.23;;;22.77;;
7179;SDS011;3631;42.152;24.756;2023-02-28T11:08:45;40.77;;;22.83;;
7179;SDS011;3631;42.152;24.756;2023-02-28T11:11:14;41.73;;;23.00;;
7179;SDS011;3631;42.152;24.756;2023-02-28T11:13:43;45.20;;;23.50;;
7179;SDS011;3631;42.152;24.756;2023-02-28T11:16:12;40.10;;;23.10;;
7179;SDS011;3631;42.152;24.756;2023-02-28T11:18:41;40.00;;;24.53;;
7179;SDS011;3631;42.152;24.756;2023-02-28T11:21:16;38.10;;;22.57;;
7179;SDS011;3631;42.152;24.756;2023-02-28T11:23:48;34.60;;;19.30;;
7179;SDS011;3631;42.152;24.756;2023-02-28T11:29:05;38.17;;;22.57;;
7179;SDS011;3631;42.152;24.756;2023-02-28T11:31:37;40.43;;;24.07;;
7179;SDS011;3631;42.152;24.756;2023-02-28T11:36:54;45.23;;;25.13;;
7179;SDS011;3631;42.152;24.756;2023-02-28T11:39:23;40.50;;;24.47;;
7179;SDS011;3631;42.152;24.756;2023-02-28T11:41:57;38.73;;;21.67;;
7179;SDS011;3631;42.152;24.756;2023-02-28T11:44:40;38.37;;;21.77;;
7179;SDS011;3631;42.152;24.756;2023-02-28T11:47:21;45.97;;;24.60;;
7179;SDS011;3631;42.152;24.756;2023-02-28T11:50:04;45.27;;;24.13;;
7179;SDS011;3631;42.152;24.756;2023-02-28T11:52:45;38.70;;;23.87;;
7179;SDS011;3631;42.152;24.756;2023-02-28T11:55:19;43.40;;;24.70;;
7179;SDS011;3631;42.152;24.756;2023-02-28T11:57:59;69.23;;;34.03;;
7179;SDS011;3631;42.152;24.756;2023-02-28T12:00:39;45.37;;;26.73;;
7179;SDS011;3631;42.152;24.756;2023-02-28T12:03:19;53.63;;;29.20;;
7179;SDS011;3631;42.152;24.756;2023-02-28T12:05:58;52.77;;;29.13;;
7179;SDS011;3631;42.152;24.756;2023-02-28T12:08:40;49.23;;;26.53;;
7179;SDS011;3631;42.152;24.756;2023-02-28T12:11:15;50.03;;;26.97;;
7179;SDS011;3631;42.152;24.756;2023-02-28T12:13:55;49.10;;;28.07;;
7179;SDS011;3631;42.152;24.756;2023-02-28T12:16:48;56.73;;;29.07;;
7179;SDS011;3631;42.152;24.756;2023-02-28T12:19:22;50.70;;;27.07;;
7179;SDS011;3631;42.152;24.756;2023-02-28T12:22:01;55.10;;;28.13;;
7179;SDS011;3631;42.152;24.756;2023-02-28T12:24:47;42.50;;;24.63;;
7179;SDS011;3631;42.152;24.756;2023-02-28T12:27:22;53.30;;;30.20;;
7179;SDS011;3631;42.152;24.756;2023-02-28T12:29:52;50.37;;;26.83;;
7179;SDS011;3631;42.152;24.756;2023-02-28T12:32:25;56.77;;;29.70;;
7179;SDS011;3631;42.152;24.756;2023-02-28T12:34:58;54.60;;;27.63;;
7179;SDS011;3631;42.152;24.756;2023-02-28T12:37:29;51.27;;;28.63;;
7179;SDS011;3631;42.152;24.756;2023-02-28T12:40:03;54.07;;;27.07;;
7179;SDS011;3631;42.152;24.756;2023-02-28T12:42:35;54.73;;;29.10;;
7179;SDS011;3631;42.152;24.756;2023-02-28T12:45:07;52.30;;;28.50;;
7179;SDS011;3631;42.152;24.756;2023-02-28T12:47:39;69.70;;;32.43;;
7179;SDS011;3631;42.152;24.756;2023-02-28T12:50:09;48.97;;;28.43;;
7179;SDS011;3631;42.152;24.756;2023-02-28T12:52:39;77.00;;;34.20;;
7179;SDS011;3631;42.152;24.756;2023-02-28T12:55:14;65.07;;;35.00;;
7179;SDS011;3631;42.152;24.756;2023-02-28T12:57:48;175.40;;;83.67;;
7179;SDS011;3631;42.152;24.756;2023-02-28T13:00:19;77.63;;;39.17;;
7179;SDS011;3631;42.152;24.756;2023-02-28T13:03:02;77.00;;;41.70;;
7179;SDS011;3631;42.152;24.756;2023-02-28T13:08:38;52.37;;;28.50;;
7179;SDS011;3631;42.152;24.756;2023-02-28T13:11:32;47.37;;;28.43;;
7179;SDS011;3631;42.152;24.756;2023-02-28T13:14:05;61.50;;;29.13;;
7179;SDS011;3631;42.152;24.756;2023-02-28T13:16:51;56.30;;;32.33;;
7179;SDS011;3631;42.152;24.756;2023-02-28T13:19:23;51.23;;;27.10;;
7179;SDS011;3631;42.152;24.756;2023-02-28T13:21:51;50.70;;;27.90;;
7179;SDS011;3631;42.152;24.756;2023-02-28T13:33:17;48.63;;;25.70;;
7179;SDS011;3631;42.152;24.756;2023-02-28T13:35:50;48.07;;;25.27;;
7179;SDS011;3631;42.152;24.756;2023-02-28T13:38:35;46.57;;;26.10;;
7179;SDS011;3631;42.152;24.756;2023-02-28T13:44:20;48.93;;;28.17;;
7179;SDS011;3631;42.152;24.756;2023-02-28T13:49:50;63.20;;;27.90;;
7179;SDS011;3631;42.152;24.756;2023-02-28T13:52:20;51.00;;;27.93;;
7179;SDS011;3631;42.152;24.756;2023-02-28T13:55:03;55.80;;;30.23;;
7179;SDS011;3631;42.152;24.756;2023-02-28T13:57:52;51.90;;;28.97;;
7179;SDS011;3631;42.152;24.756;2023-02-28T14:00:37;53.30;;;30.43;;
7179;SDS011;3631;42.152;24.756;2023-02-28T14:03:16;53.30;;;28.53;;
7179;SDS011;3631;42.152;24.756;2023-02-28T14:06:15;57.07;;;30.77;;
7179;SDS011;3631;42.152;24.756;2023-02-28T14:08:51;51.50;;;28.23;;
7179;SDS011;3631;42.152;24.756;2023-02-28T14:11:27;47.33;;;26.70;;
7179;SDS011;3631;42.152;24.756;2023-02-28T14:13:56;55.97;;;27.87;;
7179;SDS011;3631;42.152;24.756;2023-02-28T14:16:25;55.17;;;30.20;;
7179;SDS011;3631;42.152;24.756;2023-02-28T14:18:56;45.40;;;26.77;;
7179;SDS011;3631;42.152;24.756;2023-02-28T14:21:27;45.67;;;25.93;;
7179;SDS011;3631;42.152;24.756;2023-02-28T14:27:03;40.43;;;24.03;;
7179;SDS011;3631;42.152;24.756;2023-02-28T14:30:03;41.67;;;22.70;;
7179;SDS011;3631;42.152;24.756;2023-02-28T14:32:43;39.40;;;21.53;;
7179;SDS011;3631;42.152;24.756;2023-02-28T14:35:31;32.80;;;22.10;;
7179;SDS011;3631;42.152;24.756;2023-02-28T14:38:13;36.17;;;21.07;;
7179;SDS011;3631;42.152;24.756;2023-02-28T14:40:43;36.33;;;21.70;;
7179;SDS011;3631;42.152;24.756;2023-02-28T14:43:18;35.43;;;23.07;;
7179;SDS011;3631;42.152;24.756;2023-02-28T14:45:49;36.87;;;21.23;;
7179;SDS011;3631;42.152;24.756;2023-02-28T14:48:22;34.83;;;21.43;;
7179;SDS011;3631;42.152;24.756;2023-02-28T14:50:51;33.07;;;20.17;;
7179;SDS011;3631;42.152;24.756;2023-02-28T14:53:19;38.93;;;23.50;;
7179;SDS011;3631;42.152;24.756;2023-02-28T14:55:48;38.63;;;22.90;;
7179;SDS011;3631;42.152;24.756;2023-02-28T14:58:25;37.50;;;23.40;;
7179;SDS011;3631;42.152;24.756;2023-02-28T15:00:54;47.90;;;28.90;;
7179;SDS011;3631;42.152;24.756;2023-02-28T15:03:25;44.40;;;26.63;;
7179;SDS011;3631;42.152;24.756;2023-02-28T15:05:58;45.27;;;29.03;;
7179;SDS011;3631;42.152;24.756;2023-02-28T15:08:27;48.33;;;30.60;;
7179;SDS011;3631;42.152;24.756;2023-02-28T15:10:55;41.13;;;25.83;;
7179;SDS011;3631;42.152;24.756;2023-02-28T15:13:24;43.47;;;25.13;;
7179;SDS011;3631;42.152;24.756;2023-02-28T15:16:00;41.67;;;25.57;;
7179;SDS011;3631;42.152;24.756;2023-02-28T15:18:33;41.00;;;26.03;;
7179;SDS011;3631;42.152;24.756;2023-02-28T15:21:11;48.77;;;28.13;;
7179;SDS011;3631;42.152;24.756;2023-02-28T15:23:39;34.97;;;23.27;;
7179;SDS011;3631;42.152;24.756;2023-02-28T15:26:10;37.97;;;23.30;;